Time;durP1;ratioP1;P1;durP2;ratioP2;P2;SDS_P1;SDS_P2;PMS_P1;PMS_P2;Temp;Humidity;BMP_temperature;BMP_pressure;BME280_temperature;BME280_humidity;BME280_pressure;Samples;Min_cycle;Max_cycle;Signal;HPM_P1;HPM_P2
2022/11/25 07:46:48;;;;;;;8.53;4.93;;;;;;;15.14;47.31;100343.97;10225355;27;44507;-72
2022/11/25 07:51:41;;;;;;;6.83;3.80;;;;;;;15.88;46.44;100348.53;10189550;27;66402;-73
2022/11/25 07:56:33;;;;;;;5.30;3.20;;;;;;;16.17;46.56;100347.78;10191631;27;66107;-74
2022/11/25 08:01:25;;;;;;;5.03;2.93;;;;;;;16.36;46.53;100353.41;10183433;27;66415;-72
2022/11/25 08:06:19;;;;;;;3.90;2.90;;;;;;;16.52;46.64;100357.63;10179289;27;65493;-75
2022/11/25 08:11:12;;;;;;;4.68;2.65;;;;;;;16.64;46.90;100360.84;10192590;27;66125;-81
2022/11/25 08:16:05;;;;;;;7.13;2.92;;;;;;;16.75;47.04;100356.09;10183104;27;66503;-72
2022/11/25 08:20:59;;;;;;;4.78;2.85;;;;;;;16.87;47.21;100365.53;10182073;27;66409;-72
2022/11/25 08:25:52;;;;;;;4.50;2.55;;;;;;;16.99;47.19;100365.13;10182933;27;65864;-73
2022/11/25 08:30:44;;;;;;;4.38;2.88;;;;;;;17.10;47.21;100360.38;10171908;27;67255;-74
2022/11/25 08:35:36;;;;;;;4.43;2.60;;;;;;;17.17;47.20;100361.66;10191988;27;66322;-75
2022/11/25 08:40:28;;;;;;;30.52;5.13;;;;;;;17.30;47.82;100357.38;10189284;27;66128;-75
2022/11/25 08:45:22;;;;;;;25.20;4.30;;;;;;;17.54;47.82;100357.34;10180062;27;66296;-77
2022/11/25 08:50:15;;;;;;;12.80;3.45;;;;;;;17.65;47.92;100376.13;10172081;27;67106;-79
2022/11/25 08:55:08;;;;;;;7.95;2.78;;;;;;;17.64;47.69;100374.50;10162813;27;66036;-73
2022/11/25 09:00:00;;;;;;;16.33;3.95;;;;;;;17.66;47.32;100376.97;10154436;27;66009;-75
2022/11/25 09:04:53;;;;;;;14.30;3.40;;;;;;;17.76;46.93;100379.56;10156536;27;65583;-74
2022/11/25 09:09:45;;;;;;;38.13;6.60;;;;;;;17.86;46.95;100389.59;10143922;27;65927;-76
2022/11/25 09:14:39;;;;;;;52.72;6.55;;;;;;;17.99;46.71;100375.94;10159516;27;66266;-74
2022/11/25 09:19:31;;;;;;;33.25;5.82;;;;;;;18.06;46.48;100384.63;10150438;27;65993;-91
2022/11/25 09:24:24;;;;;;;37.65;7.03;;;;;;;18.23;46.05;100401.34;10155721;27;65889;-83
2022/11/25 09:29:17;;;;;;;32.13;5.68;;;;;;;18.29;45.96;100410.34;10146986;27;66373;-83
2022/11/25 09:34:09;;;;;;;32.92;6.00;;;;;;;18.32;46.02;100417.16;10143329;27;67147;-75
2022/11/25 09:39:01;;;;;;;37.17;5.78;;;;;;;18.33;45.97;100421.53;10145404;27;66668;-74
2022/11/25 09:49:11;;;;;;;33.22;5.28;;;;;;;18.34;46.01;100423.16;10148032;27;66966;-76
2022/11/25 09:54:06;;;;;;;31.70;5.95;;;;;;;18.33;45.92;100422.34;10156551;27;66399;-74
2022/11/25 09:59:02;;;;;;;20.40;5.28;;;;;;;18.32;45.98;100428.13;10173886;27;66396;-75
2022/11/25 10:03:56;;;;;;;25.42;5.10;;;;;;;18.31;46.07;100421.81;10155145;27;65587;-76
2022/11/25 10:08:49;;;;;;;18.52;4.30;;;;;;;18.27;46.00;100426.28;10144722;27;66610;-74
2022/11/25 10:13:48;;;;;;;26.13;5.35;;;;;;;18.24;46.19;100421.38;10148775;27;66219;-73
2022/11/25 10:18:43;;;;;;;23.80;5.70;;;;;;;18.24;46.13;100424.94;10145626;27;66333;-71
2022/11/25 10:23:35;;;;;;;33.33;5.28;;;;;;;18.22;46.05;100435.44;10151836;27;66363;-73
2022/11/25 10:28:30;;;;;;;26.23;5.53;;;;;;;18.23;46.14;100442.53;10148333;27;66340;-73
2022/11/25 10:33:23;;;;;;;28.45;5.90;;;;;;;18.26;46.17;100449.34;10152295;27;66392;-73
2022/11/25 10:38:18;;;;;;;25.33;5.28;;;;;;;18.23;46.36;100441.72;10148279;27;66056;-72
2022/11/25 10:43:12;;;;;;;23.60;5.53;;;;;;;18.19;46.54;100451.66;10137165;27;66324;-73
2022/11/25 10:48:13;;;;;;;31.23;6.00;;;;;;;18.19;46.72;100443.44;10153545;27;66398;-73
2022/11/25 10:53:10;;;;;;;30.98;6.45;;;;;;;18.10;46.80;100453.44;10171868;27;66295;-75
2022/11/25 10:58:21;;;;;;;15.52;4.28;;;;;;;17.74;46.40;100462.13;10147366;27;66230;-74
2022/11/25 11:03:14;;;;;;;14.82;4.32;;;;;;;17.67;46.70;100449.88;10150768;27;65622;-74
2022/11/25 11:08:09;;;;;;;9.90;3.75;;;;;;;17.73;46.52;100444.03;10142931;27;66891;-72
2022/11/25 11:13:01;;;;;;;9.90;3.53;;;;;;;17.85;46.39;100451.84;10147569;27;66419;-73
2022/11/25 11:17:56;;;;;;;10.07;3.40;;;;;;;17.88;46.37;100453.19;10149992;27;66397;-73
2022/11/25 11:22:51;;;;;;;9.52;3.75;;;;;;;17.87;46.34;100457.03;10138306;27;66178;-74
2022/11/25 11:27:43;;;;;;;9.25;3.55;;;;;;;17.86;46.28;100464.44;10146471;27;66311;-70
2022/11/25 11:32:35;;;;;;;7.18;3.85;;;;;;;17.86;46.49;100466.41;10148664;27;66632;-69
2022/11/25 11:37:38;;;;;;;13.10;3.30;;;;;;;17.80;46.59;100462.88;10151196;27;65375;-71
2022/11/25 11:42:36;;;;;;;25.42;5.43;;;;;;;17.81;47.01;100467.25;10138741;28;65602;-70
2022/11/25 11:47:30;;;;;;;17.67;4.78;;;;;;;17.75;46.74;100472.00;10149351;27;66477;-68
2022/11/25 11:52:26;;;;;;;14.88;4.10;;;;;;;17.78;46.58;100478.81;10147293;27;65196;-68
2022/11/25 11:57:24;;;;;;;19.65;4.85;;;;;;;17.81;46.77;100480.97;10145717;27;66410;-68
2022/11/25 12:02:35;;;;;;;16.20;4.30;;;;;;;17.83;47.01;100484.25;10147445;27;66257;-68
2022/11/25 12:07:30;;;;;;;22.02;5.05;;;;;;;17.82;47.09;100488.09;10146895;27;66322;-70
2022/11/25 12:12:28;;;;;;;28.50;4.93;;;;;;;17.92;47.10;100490.72;10152844;27;66214;-69
2022/11/25 12:17:23;;;;;;;28.75;5.88;;;;;;;17.97;47.19;100485.16;10150406;27;65609;-68
2022/11/25 12:22:18;;;;;;;47.60;7.32;;;;;;;18.07;47.26;100492.44;10150962;27;66184;-69
2022/11/25 12:27:12;;;;;;;29.23;5.88;;;;;;;18.22;46.72;100500.47;10157464;27;66689;-69
2022/11/25 12:32:24;;;;;;;22.90;4.40;;;;;;;18.36;46.39;100497.81;10162030;27;65606;-69
2022/11/25 12:37:21;;;;;;;19.15;3.97;;;;;;;18.48;46.29;100499.00;10142374;28;66906;-71
2022/11/25 12:42:14;;;;;;;15.00;3.85;;;;;;;18.62;47.19;100510.06;10154868;27;65915;-69
2022/11/25 12:47:09;;;;;;;14.05;3.70;;;;;;;18.88;46.94;100508.56;10140919;27;66306;-71
2022/11/25 12:52:11;;;;;;;11.18;3.72;;;;;;;19.06;46.63;100511.56;10144145;27;66392;-75
2022/11/25 12:57:30;;;;;;;11.60;3.58;;;;;;;18.99;47.14;100526.50;10152900;27;66463;-71
2022/11/25 13:02:35;;;;;;;13.57;3.40;;;;;;;19.11;46.90;100526.06;10143458;27;66316;-72
2022/11/25 13:07:27;;;;;;;13.65;4.07;;;;;;;19.12;47.02;100540.63;10146523;27;65192;-72
2022/11/25 13:12:26;;;;;;;15.45;3.70;;;;;;;19.23;46.70;100545.63;10149050;27;65543;-70
2022/11/25 13:17:18;;;;;;;9.57;3.72;;;;;;;19.42;46.33;100553.00;10148648;27;65596;-69
2022/11/25 13:22:28;;;;;;;14.95;3.90;;;;;;;19.41;46.54;100548.63;10150419;27;65794;-71
2022/11/25 13:27:30;;;;;;;13.82;3.63;;;;;;;19.40;46.50;100558.81;10146466;27;66232;-72
2022/11/25 13:32:30;;;;;;;12.13;3.53;;;;;;;19.52;46.39;100559.16;10145134;27;66434;-71
2022/11/25 13:37:39;;;;;;;12.65;3.78;;;;;;;19.70;45.95;100576.72;10158465;27;66344;-70
2022/11/25 13:42:31;;;;;;;8.07;3.30;;;;;;;19.72;45.87;100586.28;10143343;27;66361;-71
2022/11/25 13:47:28;;;;;;;12.75;3.92;;;;;;;19.72;45.71;100589.03;10139948;28;66331;-72
2022/11/25 13:52:38;;;;;;;10.93;3.88;;;;;;;19.67;45.65;100585.56;10145885;27;65482;-72
2022/11/25 13:57:30;;;;;;;11.40;4.03;;;;;;;19.69;45.64;100589.66;10142537;27;66283;-72
2022/11/25 14:02:34;;;;;;;8.70;3.38;;;;;;;19.66;45.49;100603.19;10143182;27;65876;-71
2022/11/25 14:07:27;;;;;;;9.65;3.58;;;;;;;19.68;45.39;100607.28;10136841;27;66260;-71
2022/11/25 14:12:30;;;;;;;9.85;3.55;;;;;;;19.70;45.26;100623.50;10139879;27;66387;-75
2022/11/25 14:17:30;;;;;;;11.52;4.07;;;;;;;19.72;45.42;100619.31;10149880;27;67080;-70
2022/11/25 14:22:35;;;;;;;9.90;3.53;;;;;;;19.76;46.17;100623.09;10151927;27;66428;-75
2022/11/25 14:27:29;;;;;;;10.98;4.07;;;;;;;17.92;47.14;100630.63;10140614;27;65523;-83
2022/11/25 14:32:23;;;;;;;6.75;3.70;;;;;;;17.30;47.47;100629.50;10132913;27;66479;-82
2022/11/25 14:37:17;;;;;;;9.88;4.00;;;;;;;18.42;47.13;100640.19;10151524;27;65445;-77
2022/11/25 14:42:09;;;;;;;7.43;3.17;;;;;;;18.82;46.42;100649.84;10147675;27;65700;-86
2022/11/25 14:47:04;;;;;;;7.25;3.17;;;;;;;18.96;46.50;100650.78;10159471;27;67087;-80
2022/11/25 14:51:56;;;;;;;6.82;3.25;;;;;;;19.02;46.70;100659.75;10139607;27;65376;-82
2022/11/25 14:56:48;;;;;;;6.93;2.95;;;;;;;19.04;46.82;100667.69;10153200;27;66517;-81
2022/11/25 15:01:52;;;;;;;7.47;3.08;;;;;;;19.11;47.16;100663.47;10166084;27;66264;-82
2022/11/25 15:06:48;;;;;;;8.35;3.03;;;;;;;19.23;47.20;100666.56;10151605;27;65630;-84
2022/11/25 15:11:40;;;;;;;5.13;2.45;;;;;;;19.34;47.21;100672.75;10157482;27;66521;-85
2022/11/25 15:16:33;;;;;;;6.60;2.75;;;;;;;19.41;47.29;100678.69;10151289;27;66179;-82
2022/11/25 15:21:30;;;;;;;5.95;2.85;;;;;;;19.46;47.42;100675.03;10148177;27;66646;-82
2022/11/25 15:26:24;;;;;;;6.25;2.60;;;;;;;19.49;47.40;100680.75;10150572;27;66006;-81
2022/11/25 15:31:18;;;;;;;6.82;3.00;;;;;;;19.54;47.48;100679.88;10149438;27;65638;-79
2022/11/25 15:36:10;;;;;;;4.60;2.40;;;;;;;19.58;47.59;100687.22;10150525;28;64096;-83
2022/11/25 15:41:02;;;;;;;8.32;2.50;;;;;;;19.59;47.62;100685.28;10156879;27;65432;-79
2022/11/25 15:45:57;;;;;;;5.03;2.10;;;;;;;19.66;47.59;100696.72;10149061;27;65491;-79
2022/11/25 15:50:49;;;;;;;4.90;2.70;;;;;;;19.70;47.47;100708.78;10138009;27;66828;-79
2022/11/25 15:55:41;;;;;;;4.13;2.47;;;;;;;19.71;47.55;100713.94;10140590;27;65733;-80
2022/11/25 16:00:33;;;;;;;5.85;2.28;;;;;;;19.72;47.70;100723.03;10167118;27;66483;-79
2022/11/25 16:05:53;;;;;;;6.35;2.35;;;;;;;19.78;47.59;100728.13;10154744;27;66426;-85
2022/11/25 16:10:55;;;;;;;6.75;2.53;;;;;;;19.80;47.56;100732.53;10168482;27;66369;-86
2022/11/25 16:15:48;;;;;;;5.57;2.45;;;;;;;19.72;47.62;100745.03;10162066;27;66413;-88
2022/11/25 16:20:46;;;;;;;5.68;2.40;;;;;;;19.75;47.68;100747.19;10156833;27;65505;-81
2022/11/25 16:25:39;;;;;;;4.55;2.55;;;;;;;19.68;47.58;100755.00;10154015;27;66370;-81
2022/11/25 16:30:36;;;;;;;6.43;2.65;;;;;;;19.65;47.73;100752.84;10167650;27;65805;-81
2022/11/25 16:35:28;;;;;;;4.40;2.53;;;;;;;19.61;47.77;100766.41;10159164;27;65591;-86
2022/11/25 16:40:20;;;;;;;4.18;2.47;;;;;;;19.48;48.05;100771.84;10159838;27;65581;-85
2022/11/25 16:45:18;;;;;;;7.45;2.50;;;;;;;19.43;48.24;100778.16;10148708;28;67187;-86
2022/11/25 16:50:13;;;;;;;4.10;1.98;;;;;;;19.38;48.29;100781.00;10144573;28;66324;-86
2022/11/25 16:55:05;;;;;;;4.57;2.30;;;;;;;19.31;48.41;100789.63;10155243;27;65738;-86
2022/11/25 16:59:59;;;;;;;4.13;2.25;;;;;;;19.28;48.71;100794.88;10127763;28;66410;-86
2022/11/25 17:04:53;;;;;;;3.83;2.30;;;;;;;19.26;48.80;100805.38;10139322;28;66590;-85
2022/11/25 17:09:45;;;;;;;3.88;2.67;;;;;;;19.35;48.50;100811.81;10149797;28;65635;-85
2022/11/25 17:14:38;;;;;;;7.70;2.80;;;;;;;19.29;48.82;100822.09;10156613;27;65681;-86
2022/11/25 17:19:30;;;;;;;3.42;2.20;;;;;;;19.28;49.01;100823.19;10139168;28;66376;-82
2022/11/25 17:24:24;;;;;;;6.40;2.30;;;;;;;19.26;48.99;100821.88;10158116;27;67071;-85
2022/11/25 17:29:18;;;;;;;3.58;2.17;;;;;;;19.20;49.32;100826.59;10150945;27;66445;-87
2022/11/25 17:34:13;;;;;;;5.40;2.42;;;;;;;19.18;49.44;100839.00;10161658;27;64586;-89
2022/11/25 17:39:05;;;;;;;4.70;2.40;;;;;;;19.14;49.75;100847.00;10152522;28;66010;-84
2022/11/25 17:43:58;;;;;;;5.03;2.55;;;;;;;19.11;49.72;100852.28;10158918;28;65345;-84
2022/11/25 17:48:50;;;;;;;4.72;2.33;;;;;;;19.06;50.09;100857.81;10153482;28;66496;-82
2022/11/25 17:53:43;;;;;;;3.65;2.45;;;;;;;19.02;50.16;100863.09;10148316;28;65724;-85
2022/11/25 17:58:35;;;;;;;3.53;2.20;;;;;;;18.98;50.25;100870.28;10150202;28;65578;-83
2022/11/25 18:03:29;;;;;;;3.05;2.15;;;;;;;18.94;50.45;100878.31;10144850;27;65667;-85
2022/11/25 18:08:21;;;;;;;3.88;2.30;;;;;;;18.91;50.56;100883.53;10153687;28;66466;-83
2022/11/25 18:13:13;;;;;;;4.40;2.50;;;;;;;18.89;50.60;100886.59;10147783;28;66237;-82
2022/11/25 18:18:06;;;;;;;3.53;2.50;;;;;;;18.86;50.82;100887.19;10149471;27;65695;-85
2022/11/25 18:23:00;;;;;;;5.22;2.35;;;;;;;18.83;50.85;100887.75;10142289;28;65572;-78
2022/11/25 18:27:54;;;;;;;3.75;2.30;;;;;;;18.80;50.76;100904.00;10138648;28;66554;-77
2022/11/25 18:32:47;;;;;;;4.32;2.55;;;;;;;18.77;50.93;100910.06;10139692;28;66376;-76
2022/11/25 18:37:39;;;;;;;4.10;2.65;;;;;;;18.75;51.02;100924.09;10142352;28;65484;-78
2022/11/25 18:42:32;;;;;;;4.82;2.47;;;;;;;18.74;51.19;100925.22;10142824;28;66325;-78
2022/11/25 18:47:24;;;;;;;3.22;2.28;;;;;;;18.73;51.39;100931.81;10144182;28;66313;-78
2022/11/25 18:52:16;;;;;;;3.30;2.15;;;;;;;18.69;51.33;100944.47;10143756;28;66308;-78
2022/11/25 18:57:09;;;;;;;3.33;2.20;;;;;;;18.67;51.44;100949.44;10144796;28;65536;-78
2022/11/25 19:02:02;;;;;;;3.80;2.53;;;;;;;18.67;51.75;100965.94;10143614;28;65629;-77
2022/11/25 19:06:54;;;;;;;2.88;2.10;;;;;;;18.65;51.51;100970.06;10141837;28;65871;-76
2022/11/25 19:11:48;;;;;;;2.50;2.10;;;;;;;18.65;51.70;100994.78;10143099;28;66794;-83
2022/11/25 19:16:40;;;;;;;6.30;2.58;;;;;;;18.63;51.78;101006.03;10150826;28;65517;-80
2022/11/25 19:21:33;;;;;;;5.65;2.60;;;;;;;18.63;51.75;101014.28;10152018;27;65800;-78
2022/11/25 19:26:26;;;;;;;3.53;2.20;;;;;;;18.60;51.84;101014.84;10145601;28;67131;-83
2022/11/25 19:31:19;;;;;;;4.93;2.33;;;;;;;18.58;51.93;101022.56;10137184;28;66642;-81
2022/11/25 19:36:13;;;;;;;4.25;2.15;;;;;;;18.56;52.00;101028.34;10138185;28;66305;-81
2022/11/25 19:41:07;;;;;;;5.95;2.65;;;;;;;18.56;51.94;101036.56;10142490;27;66129;-80
2022/11/25 19:46:00;;;;;;;4.45;2.30;;;;;;;18.56;52.24;101047.56;10148774;27;66484;-81
2022/11/25 19:50:58;;;;;;;4.32;2.50;;;;;;;18.55;52.16;101043.13;10151041;28;66346;-76
2022/11/25 19:55:50;;;;;;;3.75;2.15;;;;;;;18.55;52.25;101047.81;10147967;28;66314;-85
2022/11/25 20:00:44;;;;;;;4.70;2.40;;;;;;;18.53;52.27;101059.06;10147556;27;66494;-87
2022/11/25 20:05:36;;;;;;;3.97;2.20;;;;;;;18.53;52.18;101067.31;10136715;27;65634;-78
2022/11/25 20:10:30;;;;;;;4.22;2.30;;;;;;;18.53;52.19;101080.22;10140699;27;65650;-80
2022/11/25 20:15:22;;;;;;;6.80;2.70;;;;;;;18.53;52.29;101082.97;10139227;28;65698;-77
2022/11/25 20:20:18;;;;;;;4.97;2.20;;;;;;;18.53;52.25;101103.00;10140964;28;66143;-78
2022/11/25 20:25:11;;;;;;;6.30;2.30;;;;;;;18.52;52.45;101097.81;10138015;28;65622;-80
2022/11/25 20:30:09;;;;;;;2.95;2.10;;;;;;;18.52;52.66;101104.13;10139353;28;66354;-87
2022/11/25 20:35:01;;;;;;;5.03;2.67;;;;;;;18.52;52.54;101103.31;10141777;27;65580;-78
2022/11/25 20:39:56;;;;;;;4.95;2.58;;;;;;;18.53;52.49;101116.75;10143655;28;66410;-80
2022/11/25 20:44:48;;;;;;;3.20;2.17;;;;;;;18.51;52.62;101131.88;10137485;28;66062;-73
2022/11/25 20:49:40;;;;;;;3.85;2.55;;;;;;;18.52;52.52;101134.34;10143483;27;66334;-83
2022/11/25 20:54:34;;;;;;;6.03;2.30;;;;;;;18.54;52.54;101142.28;10146412;28;65013;-75
2022/11/25 20:59:29;;;;;;;5.70;2.58;;;;;;;18.51;52.51;101142.84;10159586;28;65474;-78
2022/11/25 21:04:22;;;;;;;4.90;2.70;;;;;;;18.50;52.58;101153.03;10157066;28;65849;-82
2022/11/25 21:09:16;;;;;;;4.55;2.20;;;;;;;18.52;52.42;101161.81;10152455;28;66596;-86
2022/11/25 21:14:09;;;;;;;3.90;2.55;;;;;;;18.51;52.61;101162.09;10145124;28;66369;-87
2022/11/25 21:19:03;;;;;;;5.93;2.28;;;;;;;18.51;52.64;101170.31;10147226;28;65660;-91
2022/11/25 21:23:55;;;;;;;5.53;2.33;;;;;;;18.52;52.67;101166.47;10147375;28;66299;-88
2022/11/25 21:28:47;;;;;;;5.15;2.88;;;;;;;18.50;52.63;101174.16;10147744;28;66439;-76
2022/11/25 21:33:39;;;;;;;4.88;2.65;;;;;;;18.51;52.52;101175.81;10145831;28;66402;-85
2022/11/25 21:38:33;;;;;;;3.53;2.47;;;;;;;18.55;52.80;101185.94;10146508;28;65732;-77
2022/11/25 21:43:27;;;;;;;3.72;2.35;;;;;;;18.55;52.75;101188.69;10149535;27;66396;-87
2022/11/25 21:48:19;;;;;;;4.85;2.65;;;;;;;18.52;52.54;101194.75;10148069;28;66835;-82
2022/11/25 21:53:11;;;;;;;3.90;2.47;;;;;;;18.54;52.72;101200.78;10147824;28;66375;-85
2022/11/25 21:58:07;;;;;;;3.50;2.20;;;;;;;18.54;52.59;101211.75;10157145;28;65456;-82
2022/11/25 22:02:59;;;;;;;4.85;2.65;;;;;;;18.53;52.67;101212.84;10146510;28;66383;-80
2022/11/25 22:07:53;;;;;;;4.90;2.60;;;;;;;18.53;52.79;101212.84;10150640;28;66309;-79
2022/11/25 22:12:46;;;;;;;4.05;2.60;;;;;;;18.54;52.80;101219.16;10148908;27;66369;-81
2022/11/25 22:17:39;;;;;;;5.78;3.03;;;;;;;18.53;52.71;101231.25;10154771;27;65682;-79
2022/11/25 22:22:31;;;;;;;5.20;2.80;;;;;;;18.52;52.65;101235.13;10146742;27;66344;-89
2022/11/25 22:27:24;;;;;;;4.45;2.50;;;;;;;18.52;52.73;101246.13;10150583;27;66349;-82
2022/11/25 22:32:16;;;;;;;6.63;2.63;;;;;;;18.52;52.66;101243.38;10147929;27;66414;-76
